This is the latest recevied weather packets stored in our database for station/object W3JGB. If no packets are shown the sender has not sent any weather packets the latest 1 day(s).
| Time | Temp. | Humidity | Pressure | Rain* | Wind** | Luminosity | Snow |
|---|---|---|---|---|---|---|---|
| 1778021108 | 21.67° C | 65% | 1006.4 hPa | 0 mm | 0 m/s | 48 W/m² | - |
| 1778020805 | 21.67° C | 62% | 1006.5 hPa | 0 mm | 0 m/s | 62 W/m² | - |
| 1778020502 | 22.22° C | 61% | 1006.7 hPa | 0 mm | 0.89 m/s, 311° | 78 W/m² | - |
| 1778020198 | 22.78° C | 58% | 1006.6 hPa | 0 mm | 0.89 m/s, 81° | 94 W/m² | - |
| 1778019895 | 22.78° C | 53% | 1006.5 hPa | 0 mm | 0.89 m/s, 30° | 101 W/m² | - |
| 1778019590 | 22.78° C | 54% | 1006.3 hPa | 0 mm | 0 m/s | 115 W/m² | - |
| 1778019288 | 22.78° C | 54% | 1006.7 hPa | 0 mm | 2.24 m/s, 310° | 99 W/m² | - |
| 1778018985 | 22.78° C | 55% | 1006.8 hPa | 0 mm | 0.45 m/s, 35° | 71 W/m² | - |
| 1778018682 | 22.78° C | 53% | 1006.6 hPa | 0 mm | 0.45 m/s, 331° | 69 W/m² | - |
| 1778018379 | 22.78° C | 52% | 1006.4 hPa | 0 mm | 0 m/s | 63 W/m² | - |
| 1778018077 | 22.78° C | 53% | 1006.4 hPa | 0 mm | 0.89 m/s, 338° | 61 W/m² | - |
| 1778017775 | 22.78° C | 54% | 1006.5 hPa | 0 mm | 0.45 m/s, 357° | 62 W/m² | - |
| 1778017472 | 22.22° C | 55% | 1006.5 hPa | 0 mm | 0.45 m/s, 358° | 66 W/m² | - |
| 1778017169 | 22.78° C | 55% | 1006.2 hPa | 0 mm | 0.89 m/s, 290° | 74 W/m² | - |
| 1778016867 | 23.89° C | 49% | 1006.6 hPa | 0 mm | 2.24 m/s, 219° | 37 W/m² | - |
| 1778016563 | 25° C | 42% | 1006.3 hPa | 0 mm | 0.89 m/s, 325° | 26 W/m² | - |
| 1778016260 | 25° C | 41% | 1006.1 hPa | 0 mm | 0.89 m/s, 336° | 19 W/m² | - |
| 1778001479 | 27.22° C | 42% | 1007 hPa | 0 mm | 0.89 m/s, 47° | 175 W/m² | - |
| 1778001176 | 27.22° C | 42% | 1007 hPa | 0 mm | 0.89 m/s, 47° | 175 W/m² | - |
| 1778000872 | 26.67° C | 43% | 1007.3 hPa | 0 mm | 0 m/s | 440 W/m² | - |
| 1778000569 | 26.67° C | 43% | 1006.7 hPa | 0 mm | 0.45 m/s, 0° | 436 W/m² | - |
| 1778000264 | 26.67° C | 43% | 1007.1 hPa | 0 mm | 0.89 m/s, 260° | 209 W/m² | - |
| 1777999961 | 25.56° C | 44% | 1007.2 hPa | 0 mm | 0.45 m/s, 4° | 643 W/m² | - |
| 1777999656 | 25.56° C | 44% | 1007.3 hPa | 0 mm | 1.34 m/s, 219° | 337 W/m² | - |
| 1777999354 | 25.56° C | 43% | 1007.3 hPa | 0 mm | 1.79 m/s, 273° | 185 W/m² | - |
* Rain latest hour (hover to see other rain measurements)
** Current wind speed in m/s (hover to see current wind gust speed)